This is the latest recevied weather packets stored in our database for station/object DJ8HS-1. If no packets are shown the sender has not sent any weather packets the latest 1 day(s).
| Time | Temp. | Humidity | Pressure | Rain* | Wind** | Luminosity | Snow |
|---|---|---|---|---|---|---|---|
| 1777987570 | 17.78° C | 69% | 0 hPa | 0 mm | 0 m/s | - | - |
| 1777987270 | 18.33° C | 69% | 0 hPa | 0 mm | 0.45 m/s, 251° | - | - |
| 1777986970 | 18.33° C | 68% | 0 hPa | 0 mm | 0.45 m/s, 285° | - | - |
| 1777986670 | 18.89° C | 67% | 0 hPa | 0 mm | 0 m/s | - | - |
| 1777986369 | 18.89° C | 66% | 0 hPa | 0 mm | 0 m/s | - | - |
| 1777986069 | 19.44° C | 64% | 0 hPa | 0 mm | 0 m/s | - | - |
| 1777985769 | 19.44° C | 63% | 0 hPa | 0 mm | 0.45 m/s, 251° | - | - |
| 1777985468 | 19.44° C | 62% | 0 hPa | 0 mm | 0.45 m/s, 261° | - | - |
| 1777985168 | 19.44° C | 61% | 0 hPa | 0 mm | 0.89 m/s, 293° | - | - |
| 1777984868 | 20° C | 59% | 0 hPa | 0 mm | 0.89 m/s, 251° | - | - |
| 1777984568 | 20° C | 56% | 0 hPa | 0 mm | 0.89 m/s, 203° | - | - |
| 1777984267 | 20° C | 54% | 0 hPa | 0 mm | 0.45 m/s, 298° | - | - |
| 1777983967 | 20.56° C | 53% | 0 hPa | 0 mm | 0.89 m/s, 275° | - | - |
| 1777983667 | 20.56° C | 51% | 0 hPa | 0 mm | 0 m/s | - | - |
| 1777983366 | 20.56° C | 51% | 0 hPa | 0 mm | 0 m/s | - | - |
| 1777983066 | 20.56° C | 51% | 0 hPa | 0 mm | 0.45 m/s, 212° | - | - |
| 1777982766 | 20.56° C | 51% | 0 hPa | 0 mm | 0 m/s | - | - |
| 1777982465 | 20.56° C | 51% | 0 hPa | 0 mm | 0 m/s | - | - |
| 1777982165 | 21.11° C | 50% | 0 hPa | 0 mm | 0.89 m/s, 286° | - | - |
| 1777981865 | 21.11° C | 49% | 0 hPa | 0 mm | 0.45 m/s, 157° | - | - |
| 1777981565 | 21.11° C | 49% | 0 hPa | 0 mm | 1.34 m/s, 239° | - | - |
| 1777981264 | 21.67° C | 49% | 0 hPa | 0 mm | 1.34 m/s, 248° | - | - |
| 1777980964 | 22.22° C | 48% | 0 hPa | 0 mm | 0.89 m/s, 237° | - | - |
| 1777980664 | 21.67° C | 48% | 0 hPa | 0 mm | 0 m/s | - | - |
| 1777980363 | 21.67° C | 47% | 0 hPa | 0 mm | 1.34 m/s, 270° | - | - |
* Rain latest hour (hover to see other rain measurements)
** Current wind speed in m/s (hover to see current wind gust speed)